Huvudsida
METAR-TAF:

METAR-TAF

Flygplatser :

Nukus, Uzbekistan

latitud: 42-28-48N, longitud: 059-37-48E, höjd: 77 m

Aktuellt väderrapport

Denna rapport gjordes för 34 minuter sedan, klockan 10:00 UTC
Vind 6 kt från sydväst
Temperatur 2°C
Fuktighet 80%
Tryck 1021 hPa
Sikt 10 km eller mer
Mulet på en höjd av 2000 ft

METAR: UTNN 191000Z 23006KT 9999 OVC020 02/M01 Q1021 R33/CLRD60 NOSIG

Tid: 15:34 (10:34 UTC)

Väderprognos

Denna rapport gjordes för 5 timmar och 34 minuter sedan, klockan 05:00 UTC
Prognos gäller från 19 kl. 06 UTC till 20 kl. 06 UTC
Vind 4 kt varierande vindriktning
Sikt: 5000 m
Mulet på en höjd av 700 ft
lätt snö, regn, fuktdis
Blir
från 19 kl. 12 UTC till 19 kl. 14 UTC
Vind 10 kt från nord/nordväst i byarna ända upp till 20 kt
Sikt 10 km eller mer

TAF: UTNN 190500Z 1906/2006 VRB04KT 5000 -SNRA BR OVC007 BECMG 1912/1914 33010G20KT 9999 NSW

Aktuella väderrapporter och prognoser från 4000 flygplatser (METAR- och TAF-rapporter).

De tillgängliga stationerna syns som gula och röda prickar på kartan.

För musen över prickarna för att se namnen på stationerna.

Klicka sedan för att få väderrapporter och prognoser.

För att ändra kartan: Klicka på de gröna knapparna med ett svart kors på för att zooma in; den gröna knappen med ett streck på för att zooma ut; eller på de gröna pilarna för angränsande kartor.


METAR-TAF: